sensor_id;sensor_type;location;lat;lon;timestamp;temperature;humidity
28845;DHT22;15976;47.938;7.758;2023-04-03T00:00:56;9.30;72.00
28845;DHT22;15976;47.938;7.758;2023-04-03T00:03:24;9.30;71.90
28845;DHT22;15976;47.938;7.758;2023-04-03T00:05:51;9.30;71.90
28845;DHT22;15976;47.938;7.758;2023-04-03T00:08:19;9.20;71.80
28845;DHT22;15976;47.938;7.758;2023-04-03T00:10:48;9.10;71.80
28845;DHT22;15976;47.938;7.758;2023-04-03T00:13:15;9.10;71.80
28845;DHT22;15976;47.938;7.758;2023-04-03T00:15:43;9.00;71.90
28845;DHT22;15976;47.938;7.758;2023-04-03T00:18:10;8.90;71.90
28845;DHT22;15976;47.938;7.758;2023-04-03T00:20:37;8.90;71.90
28845;DHT22;15976;47.938;7.758;2023-04-03T00:23:05;8.90;72.00
28845;DHT22;15976;47.938;7.758;2023-04-03T00:25:32;8.90;72.00
28845;DHT22;15976;47.938;7.758;2023-04-03T00:27:59;8.80;71.70
28845;DHT22;15976;47.938;7.758;2023-04-03T00:30:26;8.80;71.70
28845;DHT22;15976;47.938;7.758;2023-04-03T00:32:53;8.80;71.70
28845;DHT22;15976;47.938;7.758;2023-04-03T00:35:21;8.80;71.80
28845;DHT22;15976;47.938;7.758;2023-04-03T00:37:51;8.80;71.60
28845;DHT22;15976;47.938;7.758;2023-04-03T00:40:19;8.70;71.60
28845;DHT22;15976;47.938;7.758;2023-04-03T00:42:49;8.60;71.40
28845;DHT22;15976;47.938;7.758;2023-04-03T00:45:36;8.60;71.50
28845;DHT22;15976;47.938;7.758;2023-04-03T00:48:06;8.50;71.60
28845;DHT22;15976;47.938;7.758;2023-04-03T00:50:37;8.50;71.70
28845;DHT22;15976;47.938;7.758;2023-04-03T00:53:06;8.50;71.70
28845;DHT22;15976;47.938;7.758;2023-04-03T00:55:36;8.50;71.80
28845;DHT22;15976;47.938;7.758;2023-04-03T00:58:05;8.50;71.80
28845;DHT22;15976;47.938;7.758;2023-04-03T01:00:37;8.40;71.90
28845;DHT22;15976;47.938;7.758;2023-04-03T01:03:05;8.40;71.80
28845;DHT22;15976;47.938;7.758;2023-04-03T01:05:34;8.50;71.80
28845;DHT22;15976;47.938;7.758;2023-04-03T01:08:01;8.40;71.70
28845;DHT22;15976;47.938;7.758;2023-04-03T01:10:29;8.40;71.70
28845;DHT22;15976;47.938;7.758;2023-04-03T01:12:59;8.40;71.70
28845;DHT22;15976;47.938;7.758;2023-04-03T01:15:27;8.40;71.60
28845;DHT22;15976;47.938;7.758;2023-04-03T01:17:58;8.40;71.60
28845;DHT22;15976;47.938;7.758;2023-04-03T01:25:33;8.30;71.50
28845;DHT22;15976;47.938;7.758;2023-04-03T01:28:01;8.30;71.50
28845;DHT22;15976;47.938;7.758;2023-04-03T01:30:33;8.30;71.40
28845;DHT22;15976;47.938;7.758;2023-04-03T01:33:00;8.20;71.40
28845;DHT22;15976;47.938;7.758;2023-04-03T01:35:28;8.20;71.40
28845;DHT22;15976;47.938;7.758;2023-04-03T01:37:55;8.20;71.40
28845;DHT22;15976;47.938;7.758;2023-04-03T01:40:22;8.20;71.40
28845;DHT22;15976;47.938;7.758;2023-04-03T01:42:50;8.30;71.30
28845;DHT22;15976;47.938;7.758;2023-04-03T01:45:17;8.30;71.20
28845;DHT22;15976;47.938;7.758;2023-04-03T01:47:43;8.20;71.00
28845;DHT22;15976;47.938;7.758;2023-04-03T01:50:11;8.20;71.00
28845;DHT22;15976;47.938;7.758;2023-04-03T01:52:38;8.20;71.10
28845;DHT22;15976;47.938;7.758;2023-04-03T01:55:05;8.20;71.20
28845;DHT22;15976;47.938;7.758;2023-04-03T01:57:33;8.20;71.30
28845;DHT22;15976;47.938;7.758;2023-04-03T02:00:00;8.20;71.20
28845;DHT22;15976;47.938;7.758;2023-04-03T02:02:27;8.30;71.10
28845;DHT22;15976;47.938;7.758;2023-04-03T02:04:54;8.20;71.10
28845;DHT22;15976;47.938;7.758;2023-04-03T02:07:21;8.20;71.20
28845;DHT22;15976;47.938;7.758;2023-04-03T02:09:48;8.20;71.30
28845;DHT22;15976;47.938;7.758;2023-04-03T02:12:15;8.20;71.60
28845;DHT22;15976;47.938;7.758;2023-04-03T02:14:42;8.20;71.60
28845;DHT22;15976;47.938;7.758;2023-04-03T02:17:11;8.10;71.50
28845;DHT22;15976;47.938;7.758;2023-04-03T02:19:38;8.10;71.60
28845;DHT22;15976;47.938;7.758;2023-04-03T02:22:05;8.10;71.70
28845;DHT22;15976;47.938;7.758;2023-04-03T02:24:32;8.00;71.60
28845;DHT22;15976;47.938;7.758;2023-04-03T02:26:59;8.00;71.60
28845;DHT22;15976;47.938;7.758;2023-04-03T02:29:26;8.00;71.70
28845;DHT22;15976;47.938;7.758;2023-04-03T02:31:53;8.00;71.60
28845;DHT22;15976;47.938;7.758;2023-04-03T02:34:22;8.00;71.40
28845;DHT22;15976;47.938;7.758;2023-04-03T02:36:49;7.90;71.30
28845;DHT22;15976;47.938;7.758;2023-04-03T02:39:18;7.80;71.50
28845;DHT22;15976;47.938;7.758;2023-04-03T02:41:45;7.80;71.60
28845;DHT22;15976;47.938;7.758;2023-04-03T02:44:18;7.80;71.80
28845;DHT22;15976;47.938;7.758;2023-04-03T02:46:45;7.90;71.80
28845;DHT22;15976;47.938;7.758;2023-04-03T02:49:12;7.90;71.80
28845;DHT22;15976;47.938;7.758;2023-04-03T02:51:39;7.80;71.70
28845;DHT22;15976;47.938;7.758;2023-04-03T02:54:06;7.70;71.60
28845;DHT22;15976;47.938;7.758;2023-04-03T02:56:36;7.70;71.80
28845;DHT22;15976;47.938;7.758;2023-04-03T02:59:04;7.70;71.90
28845;DHT22;15976;47.938;7.758;2023-04-03T03:01:34;7.60;71.80
28845;DHT22;15976;47.938;7.758;2023-04-03T03:04:02;7.60;71.90
28845;DHT22;15976;47.938;7.758;2023-04-03T03:06:29;7.60;71.80
28845;DHT22;15976;47.938;7.758;2023-04-03T03:08:56;7.70;71.70
28845;DHT22;15976;47.938;7.758;2023-04-03T03:11:23;7.70;71.70
28845;DHT22;15976;47.938;7.758;2023-04-03T03:13:50;7.80;71.80
28845;DHT22;15976;47.938;7.758;2023-04-03T03:16:17;7.80;71.50
28845;DHT22;15976;47.938;7.758;2023-04-03T03:18:44;7.80;71.30
28845;DHT22;15976;47.938;7.758;2023-04-03T03:21:11;7.90;71.10
28845;DHT22;15976;47.938;7.758;2023-04-03T03:23:38;7.90;71.00
28845;DHT22;15976;47.938;7.758;2023-04-03T03:26:07;7.90;71.00
28845;DHT22;15976;47.938;7.758;2023-04-03T03:28:36;7.90;70.90
28845;DHT22;15976;47.938;7.758;2023-04-03T03:31:05;7.90;70.80
28845;DHT22;15976;47.938;7.758;2023-04-03T03:33:34;7.90;70.70
28845;DHT22;15976;47.938;7.758;2023-04-03T03:36:01;7.90;70.50
28845;DHT22;15976;47.938;7.758;2023-04-03T03:38:28;7.90;70.40
28845;DHT22;15976;47.938;7.758;2023-04-03T03:40:55;7.90;70.40
28845;DHT22;15976;47.938;7.758;2023-04-03T03:43:23;7.90;70.30
28845;DHT22;15976;47.938;7.758;2023-04-03T03:45:53;7.90;70.30
28845;DHT22;15976;47.938;7.758;2023-04-03T03:48:22;7.90;70.30
28845;DHT22;15976;47.938;7.758;2023-04-03T03:50:49;7.90;70.30
28845;DHT22;15976;47.938;7.758;2023-04-03T03:53:18;7.80;70.50
28845;DHT22;15976;47.938;7.758;2023-04-03T03:55:47;7.90;70.60
28845;DHT22;15976;47.938;7.758;2023-04-03T03:58:15;7.90;70.60
28845;DHT22;15976;47.938;7.758;2023-04-03T04:00:42;7.90;70.60
28845;DHT22;15976;47.938;7.758;2023-04-03T04:03:10;7.90;70.40
28845;DHT22;15976;47.938;7.758;2023-04-03T04:05:37;7.90;70.40
28845;DHT22;15976;47.938;7.758;2023-04-03T04:08:05;7.90;70.40
28845;DHT22;15976;47.938;7.758;2023-04-03T04:10:33;8.00;70.40
28845;DHT22;15976;47.938;7.758;2023-04-03T04:13:01;8.00;70.40
28845;DHT22;15976;47.938;7.758;2023-04-03T04:15:28;8.00;70.30
28845;DHT22;15976;47.938;7.758;2023-04-03T04:17:56;8.00;70.30
28845;DHT22;15976;47.938;7.758;2023-04-03T04:20:32;8.00;70.20
28845;DHT22;15976;47.938;7.758;2023-04-03T04:22:59;8.00;70.40
28845;DHT22;15976;47.938;7.758;2023-04-03T04:25:28;8.00;70.20
28845;DHT22;15976;47.938;7.758;2023-04-03T04:27:55;8.00;70.20
28845;DHT22;15976;47.938;7.758;2023-04-03T04:30:22;8.00;70.30
28845;DHT22;15976;47.938;7.758;2023-04-03T04:32:50;8.00;70.50
28845;DHT22;15976;47.938;7.758;2023-04-03T04:35:17;8.00;70.80
28845;DHT22;15976;47.938;7.758;2023-04-03T04:37:47;8.00;70.70
28845;DHT22;15976;47.938;7.758;2023-04-03T04:40:15;8.00;70.70
28845;DHT22;15976;47.938;7.758;2023-04-03T04:42:42;8.00;70.70
28845;DHT22;15976;47.938;7.758;2023-04-03T04:45:10;8.00;70.50
28845;DHT22;15976;47.938;7.758;2023-04-03T04:47:39;8.00;70.50
28845;DHT22;15976;47.938;7.758;2023-04-03T04:50:06;8.00;70.60
28845;DHT22;15976;47.938;7.758;2023-04-03T04:52:34;8.00;70.60
28845;DHT22;15976;47.938;7.758;2023-04-03T04:55:01;7.90;70.60
28845;DHT22;15976;47.938;7.758;2023-04-03T04:57:28;7.90;70.60
28845;DHT22;15976;47.938;7.758;2023-04-03T04:59:57;7.80;70.60
28845;DHT22;15976;47.938;7.758;2023-04-03T05:02:25;7.80;70.70
28845;DHT22;15976;47.938;7.758;2023-04-03T05:04:53;7.80;70.80
28845;DHT22;15976;47.938;7.758;2023-04-03T05:07:25;7.70;70.70
28845;DHT22;15976;47.938;7.758;2023-04-03T05:09:52;7.70;70.80
28845;DHT22;15976;47.938;7.758;2023-04-03T05:12:20;7.70;70.80
28845;DHT22;15976;47.938;7.758;2023-04-03T05:14:53;7.70;70.70
28845;DHT22;15976;47.938;7.758;2023-04-03T05:17:20;7.70;70.60
28845;DHT22;15976;47.938;7.758;2023-04-03T05:19:51;7.70;70.60
28845;DHT22;15976;47.938;7.758;2023-04-03T05:22:20;7.70;70.60
28845;DHT22;15976;47.938;7.758;2023-04-03T05:24:49;7.70;70.60
28845;DHT22;15976;47.938;7.758;2023-04-03T05:27:18;7.70;70.60
28845;DHT22;15976;47.938;7.758;2023-04-03T05:29:52;7.70;70.60
28845;DHT22;15976;47.938;7.758;2023-04-03T05:32:23;7.70;70.60
28845;DHT22;15976;47.938;7.758;2023-04-03T05:34:59;7.70;70.60
28845;DHT22;15976;47.938;7.758;2023-04-03T05:37:27;7.70;70.50
28845;DHT22;15976;47.938;7.758;2023-04-03T05:39:55;7.70;70.40
28845;DHT22;15976;47.938;7.758;2023-04-03T05:42:23;7.80;70.30
28845;DHT22;15976;47.938;7.758;2023-04-03T05:44:50;7.80;70.40
28845;DHT22;15976;47.938;7.758;2023-04-03T05:47:18;7.80;70.50
28845;DHT22;15976;47.938;7.758;2023-04-03T05:49:45;7.90;70.30
28845;DHT22;15976;47.938;7.758;2023-04-03T06:04:14;7.90;69.90
28845;DHT22;15976;47.938;7.758;2023-04-03T06:06:56;7.90;69.80
28845;DHT22;15976;47.938;7.758;2023-04-03T06:13:20;8.00;69.60
28845;DHT22;15976;47.938;7.758;2023-04-03T06:15:47;8.00;69.50
28845;DHT22;15976;47.938;7.758;2023-04-03T06:18:15;8.10;69.60
28845;DHT22;15976;47.938;7.758;2023-04-03T06:20:43;8.10;69.40
28845;DHT22;15976;47.938;7.758;2023-04-03T06:23:10;8.20;69.60
28845;DHT22;15976;47.938;7.758;2023-04-03T06:25:40;8.30;69.40
28845;DHT22;15976;47.938;7.758;2023-04-03T06:28:12;8.30;69.20
28845;DHT22;15976;47.938;7.758;2023-04-03T06:30:39;8.30;69.00
28845;DHT22;15976;47.938;7.758;2023-04-03T06:33:08;8.40;68.80
28845;DHT22;15976;47.938;7.758;2023-04-03T06:35:35;8.50;68.70
28845;DHT22;15976;47.938;7.758;2023-04-03T06:38:05;8.50;68.50
28845;DHT22;15976;47.938;7.758;2023-04-03T06:40:36;8.50;68.30
28845;DHT22;15976;47.938;7.758;2023-04-03T06:43:10;8.60;68.40
28845;DHT22;15976;47.938;7.758;2023-04-03T06:45:39;8.70;68.30
28845;DHT22;15976;47.938;7.758;2023-04-03T06:48:08;8.80;68.20
28845;DHT22;15976;47.938;7.758;2023-04-03T06:50:35;9.00;67.80
28845;DHT22;15976;47.938;7.758;2023-04-03T06:53:02;9.00;67.60
28845;DHT22;15976;47.938;7.758;2023-04-03T06:55:31;9.10;67.30
28845;DHT22;15976;47.938;7.758;2023-04-03T06:57:58;9.20;66.90
28845;DHT22;15976;47.938;7.758;2023-04-03T07:00:26;9.20;66.60
28845;DHT22;15976;47.938;7.758;2023-04-03T07:02:53;9.20;66.40
28845;DHT22;15976;47.938;7.758;2023-04-03T07:05:20;9.30;66.40
28845;DHT22;15976;47.938;7.758;2023-04-03T07:07:47;9.40;66.30
28845;DHT22;15976;47.938;7.758;2023-04-03T07:10:14;9.50;66.20
28845;DHT22;15976;47.938;7.758;2023-04-03T07:12:41;9.50;65.80
28845;DHT22;15976;47.938;7.758;2023-04-03T07:15:08;9.60;65.50
28845;DHT22;15976;47.938;7.758;2023-04-03T07:17:36;9.70;65.20
28845;DHT22;15976;47.938;7.758;2023-04-03T07:20:03;9.90;65.00
28845;DHT22;15976;47.938;7.758;2023-04-03T07:22:30;9.90;64.50
28845;DHT22;15976;47.938;7.758;2023-04-03T07:24:57;9.90;65.10
28845;DHT22;15976;47.938;7.758;2023-04-03T07:27:25;10.00;63.40
28845;DHT22;15976;47.938;7.758;2023-04-03T07:29:53;10.10;62.90
28845;DHT22;15976;47.938;7.758;2023-04-03T07:32:26;10.10;62.10
28845;DHT22;15976;47.938;7.758;2023-04-03T07:34:53;10.20;61.30
28845;DHT22;15976;47.938;7.758;2023-04-03T07:37:20;10.30;60.80
28845;DHT22;15976;47.938;7.758;2023-04-03T07:39:47;10.40;60.10
28845;DHT22;15976;47.938;7.758;2023-04-03T07:42:15;10.50;59.50
28845;DHT22;15976;47.938;7.758;2023-04-03T07:44:42;10.60;58.70
28845;DHT22;15976;47.938;7.758;2023-04-03T07:47:09;10.70;58.00
28845;DHT22;15976;47.938;7.758;2023-04-03T07:49:36;10.70;57.40
28845;DHT22;15976;47.938;7.758;2023-04-03T07:52:06;10.70;57.40
28845;DHT22;15976;47.938;7.758;2023-04-03T07:54:35;10.70;56.90
28845;DHT22;15976;47.938;7.758;2023-04-03T07:57:05;10.80;56.80
28845;DHT22;15976;47.938;7.758;2023-04-03T07:59:33;10.80;56.00
28845;DHT22;15976;47.938;7.758;2023-04-03T08:02:02;10.80;55.60
28845;DHT22;15976;47.938;7.758;2023-04-03T08:04:33;10.90;55.50
28845;DHT22;15976;47.938;7.758;2023-04-03T08:07:00;10.90;55.50
28845;DHT22;15976;47.938;7.758;2023-04-03T08:09:27;11.10;55.50
28845;DHT22;15976;47.938;7.758;2023-04-03T08:11:54;11.10;54.70
28845;DHT22;15976;47.938;7.758;2023-04-03T08:14:21;11.10;54.50
28845;DHT22;15976;47.938;7.758;2023-04-03T08:16:49;11.20;54.30
28845;DHT22;15976;47.938;7.758;2023-04-03T08:19:17;11.40;53.60
28845;DHT22;15976;47.938;7.758;2023-04-03T08:21:54;11.50;53.50
28845;DHT22;15976;47.938;7.758;2023-04-03T08:24:22;11.50;53.10
28845;DHT22;15976;47.938;7.758;2023-04-03T08:26:49;11.50;52.60
28845;DHT22;15976;47.938;7.758;2023-04-03T08:29:16;11.70;52.20
28845;DHT22;15976;47.938;7.758;2023-04-03T08:31:47;11.80;51.60
28845;DHT22;15976;47.938;7.758;2023-04-03T08:34:25;12.10;51.00
28845;DHT22;15976;47.938;7.758;2023-04-03T08:37:29;12.10;50.50
28845;DHT22;15976;47.938;7.758;2023-04-03T08:40:40;12.20;50.60
28845;DHT22;15976;47.938;7.758;2023-04-03T08:50:02;14.30;46.90
28845;DHT22;15976;47.938;7.758;2023-04-03T08:52:50;14.60;46.00
28845;DHT22;15976;47.938;7.758;2023-04-03T08:56:02;15.10;45.50
28845;DHT22;15976;47.938;7.758;2023-04-03T08:59:09;15.60;42.90
28845;DHT22;15976;47.938;7.758;2023-04-03T09:02:05;15.00;43.60
28845;DHT22;15976;47.938;7.758;2023-04-03T09:05:29;14.40;44.90
28845;DHT22;15976;47.938;7.758;2023-04-03T09:08:28;14.00;45.80
28845;DHT22;15976;47.938;7.758;2023-04-03T09:14:07;13.30;45.90
28845;DHT22;15976;47.938;7.758;2023-04-03T09:26:21;15.10;44.10
28845;DHT22;15976;47.938;7.758;2023-04-03T09:29:39;16.20;41.20
28845;DHT22;15976;47.938;7.758;2023-04-03T09:32:34;17.80;39.00
28845;DHT22;15976;47.938;7.758;2023-04-03T09:35:30;19.60;35.90
28845;DHT22;15976;47.938;7.758;2023-04-03T09:38:22;20.90;33.10
28845;DHT22;15976;47.938;7.758;2023-04-03T09:41:35;21.60;32.50
28845;DHT22;15976;47.938;7.758;2023-04-03T09:44:29;22.20;30.60
28845;DHT22;15976;47.938;7.758;2023-04-03T09:50:20;22.40;28.90
28845;DHT22;15976;47.938;7.758;2023-04-03T09:53:41;22.70;28.60
28845;DHT22;15976;47.938;7.758;2023-04-03T09:56:29;23.00;27.80
28845;DHT22;15976;47.938;7.758;2023-04-03T10:03:04;23.70;27.30
28845;DHT22;15976;47.938;7.758;2023-04-03T10:05:41;24.50;27.30
28845;DHT22;15976;47.938;7.758;2023-04-03T10:11:27;25.30;25.30
28845;DHT22;15976;47.938;7.758;2023-04-03T10:14:16;25.10;25.20
28845;DHT22;15976;47.938;7.758;2023-04-03T10:26:29;26.30;24.00
28845;DHT22;15976;47.938;7.758;2023-04-03T10:33:17;24.40;24.90
28845;DHT22;15976;47.938;7.758;2023-04-03T10:39:18;23.80;25.60
28845;DHT22;15976;47.938;7.758;2023-04-03T10:45:51;22.10;27.00
28845;DHT22;15976;47.938;7.758;2023-04-03T10:48:49;22.40;27.30
28845;DHT22;15976;47.938;7.758;2023-04-03T10:54:28;25.30;25.20
28845;DHT22;15976;47.938;7.758;2023-04-03T10:57:06;26.30;24.10
28845;DHT22;15976;47.938;7.758;2023-04-03T11:00:21;27.40;23.80
28845;DHT22;15976;47.938;7.758;2023-04-03T11:03:01;28.10;22.90
28845;DHT22;15976;47.938;7.758;2023-04-03T11:05:34;29.10;22.30
28845;DHT22;15976;47.938;7.758;2023-04-03T11:08:33;30.00;21.80
28845;DHT22;15976;47.938;7.758;2023-04-03T11:11:27;30.20;22.10
28845;DHT22;15976;47.938;7.758;2023-04-03T11:14:26;28.70;22.90
28845;DHT22;15976;47.938;7.758;2023-04-03T11:17:23;27.10;23.70
28845;DHT22;15976;47.938;7.758;2023-04-03T11:23:01;24.30;24.80
28845;DHT22;15976;47.938;7.758;2023-04-03T11:25:44;24.00;25.30
28845;DHT22;15976;47.938;7.758;2023-04-03T11:28:29;25.30;24.30
28845;DHT22;15976;47.938;7.758;2023-04-03T11:34:45;25.30;23.80
28845;DHT22;15976;47.938;7.758;2023-04-03T11:37:51;26.20;23.40
28845;DHT22;15976;47.938;7.758;2023-04-03T11:40:53;25.70;23.50
28845;DHT22;15976;47.938;7.758;2023-04-03T11:43:55;24.10;24.20
28845;DHT22;15976;47.938;7.758;2023-04-03T11:46:54;23.30;24.90
28845;DHT22;15976;47.938;7.758;2023-04-03T11:49:58;22.60;26.00
28845;DHT22;15976;47.938;7.758;2023-04-03T11:55:58;21.30;27.00
28845;DHT22;15976;47.938;7.758;2023-04-03T12:02:35;19.60;28.30
28845;DHT22;15976;47.938;7.758;2023-04-03T12:05:28;18.60;29.30
28845;DHT22;15976;47.938;7.758;2023-04-03T12:08:38;18.10;29.70
28845;DHT22;15976;47.938;7.758;2023-04-03T12:19:00;22.30;27.10
28845;DHT22;15976;47.938;7.758;2023-04-03T12:24:27;22.00;27.30
28845;DHT22;15976;47.938;7.758;2023-04-03T12:29:41;20.70;27.50
28845;DHT22;15976;47.938;7.758;2023-04-03T12:48:55;17.90;30.20
28845;DHT22;15976;47.938;7.758;2023-04-03T12:54:00;17.00;31.50
28845;DHT22;15976;47.938;7.758;2023-04-03T12:56:32;16.70;32.40
28845;DHT22;15976;47.938;7.758;2023-04-03T12:59:31;16.50;32.90
28845;DHT22;15976;47.938;7.758;2023-04-03T13:02:00;16.20;32.70
28845;DHT22;15976;47.938;7.758;2023-04-03T13:04:31;16.00;32.90
28845;DHT22;15976;47.938;7.758;2023-04-03T13:06:58;15.90;33.20
28845;DHT22;15976;47.938;7.758;2023-04-03T13:09:30;15.80;33.20
28845;DHT22;15976;47.938;7.758;2023-04-03T13:12:11;15.70;33.30
28845;DHT22;15976;47.938;7.758;2023-04-03T13:14:38;15.80;33.60
28845;DHT22;15976;47.938;7.758;2023-04-03T13:17:13;15.70;33.40
28845;DHT22;15976;47.938;7.758;2023-04-03T13:19:42;15.50;33.80
28845;DHT22;15976;47.938;7.758;2023-04-03T13:22:33;15.40;34.10
28845;DHT22;15976;47.938;7.758;2023-04-03T13:25:08;15.20;34.50
28845;DHT22;15976;47.938;7.758;2023-04-03T13:27:36;14.90;34.80
28845;DHT22;15976;47.938;7.758;2023-04-03T13:30:17;14.90;35.30
28845;DHT22;15976;47.938;7.758;2023-04-03T13:32:46;14.80;35.50
28845;DHT22;15976;47.938;7.758;2023-04-03T13:35:37;14.80;35.50
28845;DHT22;15976;47.938;7.758;2023-04-03T13:38:23;14.70;35.20
28845;DHT22;15976;47.938;7.758;2023-04-03T13:40:56;14.60;35.50
28845;DHT22;15976;47.938;7.758;2023-04-03T13:43:29;14.60;35.70
28845;DHT22;15976;47.938;7.758;2023-04-03T13:46:05;14.70;36.00
28845;DHT22;15976;47.938;7.758;2023-04-03T13:48:48;14.80;35.90
28845;DHT22;15976;47.938;7.758;2023-04-03T13:51:18;15.00;35.70
28845;DHT22;15976;47.938;7.758;2023-04-03T13:54:00;15.00;35.50
28845;DHT22;15976;47.938;7.758;2023-04-03T13:56:36;15.00;35.20
28845;DHT22;15976;47.938;7.758;2023-04-03T14:01:45;15.00;35.30
28845;DHT22;15976;47.938;7.758;2023-04-03T14:04:22;15.10;34.90
28845;DHT22;15976;47.938;7.758;2023-04-03T14:06:50;15.10;35.90
28845;DHT22;15976;47.938;7.758;2023-04-03T14:09:19;15.10;35.30
28845;DHT22;15976;47.938;7.758;2023-04-03T14:11:49;15.10;34.90
28845;DHT22;15976;47.938;7.758;2023-04-03T14:14:23;15.20;34.60
28845;DHT22;15976;47.938;7.758;2023-04-03T14:16:56;15.30;35.20
28845;DHT22;15976;47.938;7.758;2023-04-03T14:19:43;15.30;34.50
28845;DHT22;15976;47.938;7.758;2023-04-03T14:22:23;15.20;34.40
28845;DHT22;15976;47.938;7.758;2023-04-03T14:24:51;15.00;34.80
28845;DHT22;15976;47.938;7.758;2023-04-03T14:27:48;14.90;35.30
28845;DHT22;15976;47.938;7.758;2023-04-03T14:30:23;14.70;35.20
28845;DHT22;15976;47.938;7.758;2023-04-03T14:32:53;14.50;35.50
28845;DHT22;15976;47.938;7.758;2023-04-03T14:35:20;14.40;35.80
28845;DHT22;15976;47.938;7.758;2023-04-03T14:37:48;14.20;36.00
28845;DHT22;15976;47.938;7.758;2023-04-03T14:40:19;14.20;36.00
28845;DHT22;15976;47.938;7.758;2023-04-03T14:42:46;14.10;36.20
28845;DHT22;15976;47.938;7.758;2023-04-03T14:45:16;14.00;36.40
28845;DHT22;15976;47.938;7.758;2023-04-03T14:47:48;14.00;36.40
28845;DHT22;15976;47.938;7.758;2023-04-03T14:50:23;14.00;36.80
28845;DHT22;15976;47.938;7.758;2023-04-03T14:52:54;13.90;36.90
28845;DHT22;15976;47.938;7.758;2023-04-03T14:55:23;13.90;37.20
28845;DHT22;15976;47.938;7.758;2023-04-03T14:57:52;13.90;37.30
28845;DHT22;15976;47.938;7.758;2023-04-03T15:00:21;13.70;37.20
28845;DHT22;15976;47.938;7.758;2023-04-03T15:02:49;13.70;37.40
28845;DHT22;15976;47.938;7.758;2023-04-03T15:05:17;13.50;37.50
28845;DHT22;15976;47.938;7.758;2023-04-03T15:07:50;13.50;37.50
28845;DHT22;15976;47.938;7.758;2023-04-03T15:10:25;13.30;37.60
28845;DHT22;15976;47.938;7.758;2023-04-03T15:12:53;13.20;37.80
28845;DHT22;15976;47.938;7.758;2023-04-03T15:15:21;13.10;37.80
28845;DHT22;15976;47.938;7.758;2023-04-03T15:17:54;13.00;37.90
28845;DHT22;15976;47.938;7.758;2023-04-03T15:20:24;12.80;38.00
28845;DHT22;15976;47.938;7.758;2023-04-03T15:22:52;12.70;38.30
28845;DHT22;15976;47.938;7.758;2023-04-03T15:25:19;12.50;38.50
28845;DHT22;15976;47.938;7.758;2023-04-03T15:27:46;12.50;38.70
28845;DHT22;15976;47.938;7.758;2023-04-03T15:30:17;12.50;38.70
28845;DHT22;15976;47.938;7.758;2023-04-03T15:32:44;12.50;38.80
28845;DHT22;15976;47.938;7.758;2023-04-03T15:35:11;12.50;38.50
28845;DHT22;15976;47.938;7.758;2023-04-03T15:37:38;12.40;38.40
28845;DHT22;15976;47.938;7.758;2023-04-03T15:40:07;12.40;38.40
28845;DHT22;15976;47.938;7.758;2023-04-03T15:42:34;12.40;38.50
28845;DHT22;15976;47.938;7.758;2023-04-03T15:45:01;12.40;38.50
28845;DHT22;15976;47.938;7.758;2023-04-03T15:47:29;12.40;38.70
28845;DHT22;15976;47.938;7.758;2023-04-03T15:49:56;12.40;38.70
28845;DHT22;15976;47.938;7.758;2023-04-03T15:52:23;12.40;38.40
28845;DHT22;15976;47.938;7.758;2023-04-03T15:54:50;12.40;38.30
28845;DHT22;15976;47.938;7.758;2023-04-03T15:57:17;12.40;38.10
28845;DHT22;15976;47.938;7.758;2023-04-03T15:59:44;12.30;38.00
28845;DHT22;15976;47.938;7.758;2023-04-03T16:02:12;12.30;38.00
28845;DHT22;15976;47.938;7.758;2023-04-03T16:04:40;12.20;38.00
28845;DHT22;15976;47.938;7.758;2023-04-03T16:07:07;12.30;38.30
28845;DHT22;15976;47.938;7.758;2023-04-03T16:09:35;12.20;38.50
28845;DHT22;15976;47.938;7.758;2023-04-03T16:12:03;12.10;38.40
28845;DHT22;15976;47.938;7.758;2023-04-03T16:14:30;12.00;39.30
28845;DHT22;15976;47.938;7.758;2023-04-03T16:16:58;11.90;38.80
28845;DHT22;15976;47.938;7.758;2023-04-03T16:19:29;11.70;38.70
28845;DHT22;15976;47.938;7.758;2023-04-03T16:21:57;11.60;38.90
28845;DHT22;15976;47.938;7.758;2023-04-03T16:24:24;11.60;39.00
28845;DHT22;15976;47.938;7.758;2023-04-03T16:26:51;11.60;39.10
28845;DHT22;15976;47.938;7.758;2023-04-03T16:29:20;11.50;39.10
28845;DHT22;15976;47.938;7.758;2023-04-03T16:31:47;11.40;39.00
28845;DHT22;15976;47.938;7.758;2023-04-03T16:34:14;11.40;39.40
28845;DHT22;15976;47.938;7.758;2023-04-03T16:36:42;11.40;38.70
28845;DHT22;15976;47.938;7.758;2023-04-03T16:39:09;11.30;38.90
28845;DHT22;15976;47.938;7.758;2023-04-03T16:41:36;11.30;39.00
28845;DHT22;15976;47.938;7.758;2023-04-03T16:44:03;11.30;39.10
28845;DHT22;15976;47.938;7.758;2023-04-03T16:46:30;11.30;39.10
28845;DHT22;15976;47.938;7.758;2023-04-03T16:48:58;11.40;38.90
28845;DHT22;15976;47.938;7.758;2023-04-03T16:51:25;11.30;38.90
28845;DHT22;15976;47.938;7.758;2023-04-03T16:53:52;11.30;39.00
28845;DHT22;15976;47.938;7.758;2023-04-03T16:56:19;11.20;38.80
28845;DHT22;15976;47.938;7.758;2023-04-03T16:58:46;11.10;38.80
28845;DHT22;15976;47.938;7.758;2023-04-03T17:01:16;11.10;39.00
28845;DHT22;15976;47.938;7.758;2023-04-03T17:03:44;11.00;39.10
28845;DHT22;15976;47.938;7.758;2023-04-03T17:06:15;11.00;39.20
28845;DHT22;15976;47.938;7.758;2023-04-03T17:08:45;10.90;39.20
28845;DHT22;15976;47.938;7.758;2023-04-03T17:11:26;10.80;39.50
28845;DHT22;15976;47.938;7.758;2023-04-03T17:13:53;10.80;39.50
28845;DHT22;15976;47.938;7.758;2023-04-03T17:16:20;10.70;39.80
28845;DHT22;15976;47.938;7.758;2023-04-03T17:18:48;10.60;39.90
28845;DHT22;15976;47.938;7.758;2023-04-03T17:21:16;10.60;40.10
28845;DHT22;15976;47.938;7.758;2023-04-03T17:23:47;10.50;40.20
28845;DHT22;15976;47.938;7.758;2023-04-03T17:26:18;10.50;40.40
28845;DHT22;15976;47.938;7.758;2023-04-03T17:28:47;10.50;40.70
28845;DHT22;15976;47.938;7.758;2023-04-03T17:31:14;10.60;40.80
28845;DHT22;15976;47.938;7.758;2023-04-03T17:33:41;10.60;40.80
28845;DHT22;15976;47.938;7.758;2023-04-03T17:36:08;10.50;40.90
28845;DHT22;15976;47.938;7.758;2023-04-03T17:38:36;10.50;41.00
28845;DHT22;15976;47.938;7.758;2023-04-03T17:41:05;10.50;41.30
28845;DHT22;15976;47.938;7.758;2023-04-03T17:43:34;10.50;41.50
28845;DHT22;15976;47.938;7.758;2023-04-03T17:46:03;10.40;41.50
28845;DHT22;15976;47.938;7.758;2023-04-03T17:48:31;10.30;41.40
28845;DHT22;15976;47.938;7.758;2023-04-03T17:51:02;10.20;41.60
28845;DHT22;15976;47.938;7.758;2023-04-03T17:53:29;10.20;42.70
28845;DHT22;15976;47.938;7.758;2023-04-03T17:55:57;10.20;42.10
28845;DHT22;15976;47.938;7.758;2023-04-03T17:58:24;10.10;42.10
28845;DHT22;15976;47.938;7.758;2023-04-03T18:00:51;10.00;42.20
28845;DHT22;15976;47.938;7.758;2023-04-03T18:03:21;10.00;42.20
28845;DHT22;15976;47.938;7.758;2023-04-03T18:05:48;9.90;42.30
28845;DHT22;15976;47.938;7.758;2023-04-03T18:08:16;9.90;42.30
28845;DHT22;15976;47.938;7.758;2023-04-03T18:14:06;9.80;42.50
28845;DHT22;15976;47.938;7.758;2023-04-03T18:16:34;9.80;42.50